createdAt,value
2018-03-19T00:00:31.938Z,4.00
2018-03-19T00:01:35.405Z,4.00
2018-03-19T00:02:38.839Z,4.00
2018-03-19T00:03:42.078Z,3.00
2018-03-19T00:04:45.237Z,3.50
2018-03-19T00:05:48.567Z,2.00
2018-03-19T00:06:51.795Z,3.00
2018-03-19T00:07:54.911Z,3.50
2018-03-19T00:08:59.207Z,3.50
2018-03-19T00:10:02.633Z,4.00
2018-03-19T00:11:06.053Z,4.00
2018-03-19T00:12:09.408Z,4.00
2018-03-19T00:13:12.764Z,5.00
2018-03-19T00:14:16.549Z,4.00
2018-03-19T00:15:19.905Z,3.50
2018-03-19T00:16:23.264Z,5.00
2018-03-19T00:17:27.216Z,4.00
2018-03-19T00:18:30.760Z,4.00
2018-03-19T00:19:34.113Z,4.00
2018-03-19T00:20:37.442Z,2.50
2018-03-19T00:21:40.778Z,3.00
2018-03-19T00:22:44.105Z,3.50
2018-03-19T00:23:48.111Z,4.00
2018-03-19T00:24:51.774Z,4.00
2018-03-19T00:25:55.220Z,3.00
2018-03-19T00:26:58.692Z,4.00
2018-03-19T00:28:02.388Z,4.00
2018-03-19T00:29:06.086Z,2.00
2018-03-19T00:30:10.119Z,3.50
2018-03-19T00:31:13.512Z,4.00
2018-03-19T00:32:17.515Z,2.00
2018-03-19T00:33:21.130Z,4.00
2018-03-19T00:34:24.555Z,4.00
2018-03-19T00:35:28.270Z,2.00
2018-03-19T00:36:32.180Z,4.00
2018-03-19T00:37:35.599Z,4.00
2018-03-19T00:38:39.084Z,2.50
2018-03-19T00:39:42.623Z,2.50
2018-03-19T00:40:46.320Z,4.00
2018-03-19T00:41:49.720Z,4.00
2018-03-19T00:42:53.777Z,4.00
2018-03-19T00:43:57.331Z,4.00
2018-03-19T00:45:01.019Z,6.00
2018-03-19T00:46:04.452Z,4.00
2018-03-19T00:47:07.845Z,3.00
2018-03-19T00:48:11.229Z,4.00
2018-03-19T00:49:15.317Z,4.00
2018-03-19T00:50:18.713Z,4.00
2018-03-19T00:51:22.268Z,3.00
2018-03-19T00:52:25.802Z,4.00
2018-03-19T00:53:29.510Z,3.50
2018-03-19T00:54:33.029Z,4.00
2018-03-19T00:55:36.924Z,2.00
2018-03-19T00:56:40.410Z,3.00
2018-03-19T00:57:43.824Z,5.50
2018-03-19T00:58:47.405Z,4.00
2018-03-19T00:59:51.024Z,4.00
2018-03-19T01:00:54.359Z,3.50
2018-03-19T01:01:58.302Z,3.50
2018-03-19T01:03:01.927Z,2.00
2018-03-19T01:04:05.524Z,2.50
2018-03-19T01:05:09.166Z,6.00
2018-03-19T01:06:12.776Z,3.50
2018-03-19T01:07:16.358Z,4.50
2018-03-19T01:08:20.535Z,5.00
2018-03-19T01:09:24.104Z,4.00
2018-03-19T01:10:27.680Z,3.00
2018-03-19T01:11:31.300Z,4.00
2018-03-19T01:12:34.741Z,3.50
2018-03-19T01:13:38.355Z,5.00
2018-03-19T01:14:42.464Z,4.00
2018-03-19T01:15:46.124Z,6.00
2018-03-19T01:16:50.019Z,4.50
2018-03-19T01:17:53.588Z,2.00
2018-03-19T01:18:57.111Z,4.00
2018-03-19T01:20:00.669Z,4.50
2018-03-19T01:21:04.771Z,4.00
2018-03-19T01:22:08.302Z,4.50
2018-03-19T01:23:11.862Z,4.00
2018-03-19T01:24:15.371Z,6.00
2018-03-19T01:25:19.143Z,3.50
2018-03-19T01:26:22.900Z,5.00
2018-03-19T01:27:26.952Z,4.50
2018-03-19T01:28:30.463Z,3.50
2018-03-19T01:29:34.078Z,4.00
2018-03-19T01:30:37.920Z,2.50
2018-03-19T01:31:41.504Z,2.00
2018-03-19T01:32:45.056Z,4.00
2018-03-19T01:33:49.080Z,6.00
2018-03-19T01:34:52.539Z,4.00
2018-03-19T01:35:56.221Z,4.00
2018-03-19T01:37:00.455Z,6.00
2018-03-19T01:38:04.178Z,4.00
2018-03-19T01:39:07.953Z,4.50
2018-03-19T01:40:11.688Z,4.00
2018-03-19T01:41:15.323Z,4.00
2018-03-19T01:42:18.957Z,3.50
2018-03-19T01:43:22.413Z,4.00
2018-03-19T01:44:25.906Z,3.50
2018-03-19T01:45:29.552Z,4.00
2018-03-19T01:46:33.530Z,4.00
2018-03-19T01:47:37.187Z,3.50
2018-03-19T01:48:40.791Z,4.00
2018-03-19T01:49:44.328Z,2.50
2018-03-19T01:50:47.938Z,6.00
2018-03-19T01:51:51.603Z,4.00
2018-03-19T01:52:55.618Z,4.00
2018-03-19T01:53:59.285Z,4.00
2018-03-19T01:55:02.925Z,4.00
2018-03-19T01:56:06.833Z,4.00
2018-03-19T01:57:10.814Z,4.00
2018-03-19T01:58:14.264Z,4.00
2018-03-19T01:59:18.304Z,4.00
2018-03-19T02:00:21.705Z,4.00
2018-03-19T02:01:25.201Z,3.00
2018-03-19T02:02:28.958Z,6.00
2018-03-19T02:03:32.646Z,2.50
2018-03-19T02:04:36.353Z,3.00
2018-03-19T02:05:40.347Z,4.50
2018-03-19T02:06:43.753Z,7.50
2018-03-19T02:07:47.697Z,4.00
2018-03-19T02:08:51.347Z,3.00
2018-03-19T02:09:55.004Z,2.50
2018-03-19T02:10:58.456Z,3.50
2018-03-19T02:12:02.495Z,2.50
2018-03-19T02:13:06.329Z,5.00
2018-03-19T02:14:10.024Z,2.00
2018-03-19T02:15:13.480Z,5.00
2018-03-19T02:16:16.990Z,4.00
2018-03-19T02:17:20.554Z,5.00
2018-03-19T02:18:24.456Z,4.00
2018-03-19T02:19:27.959Z,4.00
2018-03-19T02:20:31.366Z,5.00
2018-03-19T02:21:35.185Z,4.00
2018-03-19T02:22:38.645Z,4.00
2018-03-19T02:23:42.523Z,4.00
2018-03-19T02:24:46.502Z,5.50
2018-03-19T02:25:50.030Z,4.00
2018-03-19T02:26:53.667Z,4.00
2018-03-19T02:27:57.457Z,2.50
2018-03-19T02:29:00.932Z,4.00
2018-03-19T02:30:04.458Z,6.00
2018-03-19T02:31:08.685Z,3.50
2018-03-19T02:32:11.982Z,5.50
2018-03-19T02:33:15.265Z,2.00
2018-03-19T02:34:18.688Z,4.00
2018-03-19T02:35:22.045Z,3.50
2018-03-19T02:36:25.532Z,4.50
2018-03-19T02:37:29.205Z,4.00
2018-03-19T02:38:32.491Z,4.50
2018-03-19T02:39:35.643Z,4.50
2018-03-19T02:40:39.048Z,4.00
2018-03-19T02:41:42.834Z,6.00
2018-03-19T02:42:46.383Z,3.00
2018-03-19T02:45:04.281Z,2.50
2018-03-19T02:46:07.879Z,4.50
2018-03-19T02:47:11.105Z,2.00
2018-03-19T02:48:14.755Z,4.00
2018-03-19T02:49:18.287Z,3.50
2018-03-19T02:50:22.254Z,4.00
2018-03-19T02:51:25.730Z,4.50
2018-03-19T02:52:28.875Z,4.00
2018-03-19T02:53:32.284Z,3.50
2018-03-19T02:54:35.751Z,6.00
2018-03-19T02:55:39.055Z,4.00
2018-03-19T02:56:42.633Z,6.00
2018-03-19T02:57:46.356Z,5.50
2018-03-19T02:58:49.606Z,5.00
2018-03-19T02:59:52.945Z,4.00
2018-03-19T03:00:56.227Z,3.50
2018-03-19T03:01:59.762Z,3.00
2018-03-19T03:03:03.472Z,4.00
2018-03-19T03:04:06.707Z,4.50
2018-03-19T03:05:09.795Z,4.00
2018-03-19T03:06:12.864Z,4.50
2018-03-19T03:07:16.120Z,3.50
2018-03-19T03:08:19.392Z,6.00
2018-03-19T03:09:22.990Z,4.00
2018-03-19T03:10:26.244Z,4.00
2018-03-19T03:11:29.210Z,3.00
2018-03-19T03:12:32.545Z,4.50
2018-03-19T03:13:35.637Z,4.00
2018-03-19T03:14:38.724Z,6.00
2018-03-19T03:15:41.991Z,4.50
2018-03-19T03:16:45.275Z,4.00
2018-03-19T03:17:48.393Z,3.00
2018-03-19T03:18:51.355Z,4.00
2018-03-19T03:19:54.592Z,2.00
2018-03-19T03:20:57.951Z,4.00
2018-03-19T03:22:01.687Z,2.00
2018-03-19T03:23:05.054Z,6.00
2018-03-19T03:24:08.415Z,4.00
2018-03-19T03:25:11.677Z,6.00
2018-03-19T03:26:14.916Z,3.00
2018-03-19T03:27:18.452Z,4.00
2018-03-19T03:28:21.829Z,6.00
2018-03-19T03:29:25.179Z,6.00
2018-03-19T03:30:28.594Z,2.00
2018-03-19T03:31:31.983Z,3.50
2018-03-19T03:32:35.268Z,4.00
2018-03-19T03:33:38.994Z,4.00
2018-03-19T03:34:42.064Z,4.00
2018-03-19T03:35:45.597Z,4.00
2018-03-19T03:36:48.874Z,5.00
2018-03-19T03:37:52.022Z,4.00
2018-03-19T03:38:55.373Z,4.50
2018-03-19T03:39:58.963Z,2.50
2018-03-19T03:41:02.653Z,4.00
2018-03-19T03:42:05.951Z,3.50
2018-03-19T03:43:09.065Z,3.50
2018-03-19T03:44:12.421Z,4.50
2018-03-19T03:45:15.821Z,4.50
2018-03-19T03:46:19.397Z,4.00
2018-03-19T03:47:22.829Z,5.50
2018-03-19T03:48:26.134Z,4.00
2018-03-19T03:49:29.361Z,6.50
2018-03-19T03:50:32.559Z,6.00
2018-03-19T03:51:35.652Z,4.00
2018-03-19T03:52:39.117Z,5.50
2018-03-19T03:53:42.268Z,2.50
2018-03-19T03:54:45.350Z,3.50
2018-03-19T03:55:48.576Z,3.50
2018-03-19T03:56:51.963Z,3.00
2018-03-19T03:57:55.127Z,5.00
2018-03-19T03:58:58.643Z,5.00
2018-03-19T04:00:01.745Z,4.50
2018-03-19T04:01:04.915Z,4.00
2018-03-19T04:02:08.098Z,4.00
2018-03-19T04:03:11.276Z,4.00
2018-03-19T04:04:14.433Z,5.50
2018-03-19T04:05:17.886Z,6.00
2018-03-19T04:06:21.024Z,3.00
2018-03-19T04:07:24.069Z,6.00
2018-03-19T04:08:27.232Z,4.00
2018-03-19T04:09:30.739Z,6.00
2018-03-19T04:10:34.123Z,3.00
2018-03-19T04:11:37.604Z,5.00
2018-03-19T04:12:40.924Z,4.00
2018-03-19T04:13:44.144Z,4.00
2018-03-19T04:14:47.284Z,5.00
2018-03-19T04:15:50.444Z,3.50
2018-03-19T04:16:53.587Z,4.00
2018-03-19T04:17:57.152Z,4.00
2018-03-19T04:19:00.238Z,7.50
2018-03-19T04:20:03.611Z,3.50
2018-03-19T04:21:06.716Z,4.50
2018-03-19T04:22:09.807Z,6.00
2018-03-19T04:23:13.031Z,3.00
2018-03-19T04:24:16.649Z,2.00
2018-03-19T04:25:19.780Z,4.50
2018-03-19T04:26:22.893Z,4.50
2018-03-19T04:27:26.072Z,4.00
2018-03-19T04:28:29.172Z,2.00
2018-03-19T04:29:32.323Z,4.00
2018-03-19T04:30:35.788Z,5.50
2018-03-19T04:31:38.962Z,4.50
2018-03-19T04:32:42.263Z,4.00
2018-03-19T04:33:45.406Z,4.00
2018-03-19T04:34:48.631Z,4.00
2018-03-19T04:35:51.631Z,3.50
2018-03-19T04:36:55.089Z,4.00
2018-03-19T04:37:58.340Z,4.00
2018-03-19T04:39:01.417Z,4.00
2018-03-19T04:40:04.571Z,5.00
2018-03-19T04:41:07.826Z,5.00
2018-03-19T04:42:11.287Z,5.50
2018-03-19T04:43:14.841Z,3.00
2018-03-19T04:44:18.391Z,4.50
2018-03-19T04:45:21.573Z,6.00
2018-03-19T04:46:24.838Z,6.00
2018-03-19T04:47:28.064Z,2.50
2018-03-19T04:48:31.290Z,5.50
2018-03-19T04:49:34.784Z,4.00
2018-03-19T04:50:38.190Z,2.00
2018-03-19T04:51:43.394Z,4.00
2018-03-19T04:52:46.817Z,5.00
2018-03-19T04:53:50.111Z,2.00
2018-03-19T04:54:53.276Z,2.50
2018-03-19T04:55:56.944Z,4.50
2018-03-19T04:57:00.165Z,6.00
2018-03-19T04:58:03.391Z,3.00
2018-03-19T04:59:06.625Z,4.50
2018-03-19T05:00:09.931Z,5.00
2018-03-19T05:01:12.978Z,4.00
2018-03-19T05:02:16.903Z,6.00
2018-03-19T05:03:20.199Z,4.50
2018-03-19T05:04:23.526Z,3.50
2018-03-19T05:05:26.747Z,5.50
2018-03-19T05:06:30.036Z,4.00
2018-03-19T05:07:33.565Z,4.00
2018-03-19T05:08:37.576Z,4.00
2018-03-19T05:09:40.792Z,6.00
2018-03-19T05:10:44.274Z,6.00
2018-03-19T05:11:47.706Z,4.00
2018-03-19T05:12:51.125Z,5.00
2018-03-19T05:13:54.822Z,4.00
2018-03-19T05:14:58.916Z,2.50
2018-03-19T05:16:02.488Z,4.00
2018-03-19T05:17:07.263Z,6.00
2018-03-19T05:18:10.556Z,3.50
2018-03-19T05:19:14.199Z,5.00
2018-03-19T05:20:17.690Z,5.50
2018-03-19T05:21:21.821Z,5.50
2018-03-19T05:22:25.374Z,4.50
2018-03-19T05:23:28.837Z,3.00
2018-03-19T05:24:32.280Z,5.00
2018-03-19T05:25:35.958Z,4.00
2018-03-19T05:26:40.161Z,4.00
2018-03-19T05:27:43.682Z,3.50
2018-03-19T05:28:47.063Z,4.00
2018-03-19T05:29:50.435Z,6.50
2018-03-19T05:30:53.686Z,4.00
2018-03-19T05:31:57.126Z,5.50
2018-03-19T05:33:00.950Z,2.50
2018-03-19T05:34:05.214Z,5.00
2018-03-19T05:35:08.908Z,4.00
2018-03-19T05:36:12.451Z,7.50
2018-03-19T05:37:15.870Z,5.00
2018-03-19T05:38:19.535Z,6.00
2018-03-19T05:39:22.904Z,4.00
2018-03-19T05:40:26.520Z,6.00
2018-03-19T05:41:29.922Z,4.00
2018-03-19T05:42:33.566Z,4.00
2018-03-19T05:43:37.312Z,5.00
2018-03-19T05:44:40.803Z,6.00
2018-03-19T05:45:44.298Z,6.00
2018-03-19T05:46:48.090Z,4.00
2018-03-19T05:47:51.483Z,4.00
2018-03-19T05:48:54.770Z,6.00
2018-03-19T05:49:58.190Z,4.00
2018-03-19T05:51:01.706Z,4.00
2018-03-19T05:52:05.508Z,4.00
2018-03-19T05:53:09.797Z,4.00
2018-03-19T05:54:13.566Z,3.50
2018-03-19T05:55:17.114Z,5.00
2018-03-19T05:56:20.579Z,4.00
2018-03-19T05:57:24.391Z,6.00
2018-03-19T05:58:27.851Z,4.00
2018-03-19T05:59:31.958Z,8.50
2018-03-19T06:00:35.568Z,7.50
2018-03-19T06:01:39.241Z,8.00
2018-03-19T06:02:43.193Z,5.50
2018-03-19T06:03:46.867Z,3.50
2018-03-19T06:04:50.518Z,5.50
2018-03-19T06:05:54.426Z,5.50
2018-03-19T06:06:58.850Z,5.50
2018-03-19T06:08:02.645Z,2.00
2018-03-19T06:09:06.233Z,8.00
2018-03-19T06:10:10.016Z,2.50
2018-03-19T06:11:13.695Z,3.50
2018-03-19T06:12:17.601Z,4.00
2018-03-19T06:13:21.341Z,4.00
2018-03-19T06:14:25.456Z,3.50
2018-03-19T06:15:29.117Z,4.00
2018-03-19T06:16:32.800Z,7.00
2018-03-19T06:17:36.439Z,8.00
2018-03-19T06:18:40.162Z,4.50
2018-03-19T06:19:43.708Z,5.50
2018-03-19T06:20:47.404Z,4.50
2018-03-19T06:21:50.882Z,4.00
2018-03-19T06:22:54.397Z,6.00
2018-03-19T06:23:57.959Z,4.00
2018-03-19T06:25:01.515Z,4.50
2018-03-19T06:26:05.096Z,4.00
2018-03-19T06:27:08.426Z,5.50
2018-03-19T06:28:11.922Z,7.00
2018-03-19T06:29:15.708Z,6.50
2018-03-19T06:30:19.245Z,5.50
2018-03-19T06:31:23.190Z,6.00
2018-03-19T06:32:26.952Z,5.50
2018-03-19T06:33:30.463Z,4.00
2018-03-19T06:34:34.261Z,5.00
2018-03-19T06:35:38.188Z,6.00
2018-03-19T06:36:41.574Z,6.50
2018-03-19T06:37:45.738Z,4.00
2018-03-19T06:38:49.533Z,4.00
2018-03-19T06:39:53.322Z,4.00
2018-03-19T06:40:56.910Z,4.00
2018-03-19T06:42:00.443Z,6.00
2018-03-19T06:43:03.863Z,4.50
2018-03-19T06:44:07.628Z,4.50
2018-03-19T06:45:11.105Z,4.00
2018-03-19T06:46:14.500Z,5.50
2018-03-19T06:47:17.840Z,6.00
2018-03-19T06:48:21.491Z,5.00
2018-03-19T06:49:25.029Z,4.00
2018-03-19T06:50:29.276Z,4.00
2018-03-19T06:51:32.759Z,2.00
2018-03-19T06:52:36.269Z,4.00
2018-03-19T06:53:39.921Z,6.00
2018-03-19T06:54:43.652Z,4.50
2018-03-19T06:55:47.884Z,4.00
2018-03-19T06:56:52.224Z,4.00
2018-03-19T06:57:55.816Z,4.00
2018-03-19T06:58:59.432Z,4.00
2018-03-19T07:00:02.975Z,5.50
2018-03-19T07:01:06.440Z,6.00
2018-03-19T07:02:10.028Z,6.00
2018-03-19T07:03:14.016Z,4.00
2018-03-19T07:04:17.699Z,7.50
2018-03-19T07:05:21.245Z,4.00
2018-03-19T07:06:25.058Z,5.50
2018-03-19T07:07:28.746Z,4.00
2018-03-19T07:08:32.658Z,4.00
2018-03-19T07:09:36.470Z,6.00
2018-03-19T07:10:40.231Z,6.00
2018-03-19T07:11:43.846Z,5.50
2018-03-19T07:12:47.456Z,5.00
2018-03-19T07:13:50.839Z,4.00
2018-03-19T07:14:54.457Z,7.00
2018-03-19T07:15:58.365Z,6.00
2018-03-19T07:17:09.793Z,4.50
2018-03-19T07:18:13.271Z,4.00
2018-03-19T07:19:16.829Z,5.50
2018-03-19T07:20:20.467Z,4.00
2018-03-19T07:21:24.143Z,9.50
2018-03-19T07:22:28.077Z,6.00
2018-03-19T07:23:31.699Z,8.00
2018-03-19T07:24:35.229Z,4.00
2018-03-19T07:25:39.033Z,6.00
2018-03-19T07:26:42.496Z,8.00
2018-03-19T07:27:48.651Z,5.00
2018-03-19T07:28:54.237Z,6.00
2018-03-19T07:29:58.065Z,7.00
2018-03-19T07:31:02.737Z,5.50
2018-03-19T07:32:06.359Z,6.00
2018-03-19T07:33:10.039Z,6.00
2018-03-19T07:34:13.480Z,6.00
2018-03-19T07:35:17.399Z,6.00
2018-03-19T07:36:21.647Z,6.00
2018-03-19T07:37:25.202Z,8.00
2018-03-19T07:38:28.843Z,5.00
2018-03-19T07:39:32.544Z,4.50
2018-03-19T07:40:36.102Z,8.00
2018-03-19T07:41:40.336Z,6.00
2018-03-19T07:42:44.300Z,6.00
2018-03-19T07:43:47.934Z,4.00
2018-03-19T07:44:51.638Z,6.00
2018-03-19T07:45:55.405Z,5.50
2018-03-19T07:46:58.902Z,5.50
2018-03-19T07:48:02.917Z,6.00
2018-03-19T07:49:06.315Z,6.00
2018-03-19T07:50:09.744Z,7.00
2018-03-19T07:51:13.402Z,4.00
2018-03-19T07:52:16.833Z,6.00
2018-03-19T07:53:20.106Z,8.00
2018-03-19T07:54:24.079Z,7.00
2018-03-19T07:55:27.533Z,6.50
2018-03-19T07:56:31.097Z,4.50
2018-03-19T07:57:34.454Z,6.00
2018-03-19T07:58:38.101Z,6.00
2018-03-19T07:59:41.602Z,6.00
2018-03-19T08:00:45.480Z,6.00
2018-03-19T08:01:48.896Z,8.00
2018-03-19T08:02:52.439Z,8.50
2018-03-19T08:03:55.941Z,6.50
2018-03-19T08:04:59.405Z,5.00
2018-03-19T08:06:02.845Z,6.50
2018-03-19T08:07:06.889Z,8.50
2018-03-19T08:08:10.386Z,7.00
2018-03-19T08:09:13.907Z,7.00
2018-03-19T08:10:17.420Z,8.00
2018-03-19T08:11:21.002Z,7.00
2018-03-19T08:12:24.565Z,10.00
2018-03-19T08:13:28.541Z,4.00
2018-03-19T08:14:31.919Z,8.00
2018-03-19T08:15:35.332Z,8.00
2018-03-19T08:16:38.797Z,8.00
2018-03-19T08:17:42.487Z,8.00
2018-03-19T08:18:46.026Z,6.50
2018-03-19T08:19:49.795Z,6.00
2018-03-19T08:20:53.202Z,7.00
2018-03-19T08:21:56.713Z,8.00
2018-03-19T08:23:00.164Z,8.00
2018-03-19T08:24:03.901Z,9.00
2018-03-19T08:25:07.378Z,7.00
2018-03-19T08:26:11.242Z,8.00
2018-03-19T08:27:14.561Z,6.50
2018-03-19T08:28:17.973Z,10.00
2018-03-19T08:29:21.391Z,8.00
2018-03-19T08:30:24.975Z,7.50
2018-03-19T08:31:28.407Z,7.50
2018-03-19T08:32:32.302Z,8.00
2018-03-19T08:33:35.835Z,5.00
2018-03-19T08:34:39.153Z,8.50
2018-03-19T08:35:42.562Z,6.50
2018-03-19T08:36:46.300Z,10.00
2018-03-19T08:37:49.891Z,9.00
2018-03-19T08:38:53.799Z,8.00
2018-03-19T08:39:57.269Z,9.50
2018-03-19T08:41:00.704Z,9.00
2018-03-19T08:42:04.056Z,9.50
2018-03-19T08:43:07.523Z,6.00
2018-03-19T08:44:11.036Z,8.00
2018-03-19T08:45:14.853Z,6.00
2018-03-19T08:46:18.229Z,10.00
2018-03-19T08:47:21.874Z,8.50
2018-03-19T08:48:25.334Z,9.00
2018-03-19T08:49:28.835Z,8.00
2018-03-19T08:50:32.291Z,6.00
2018-03-19T08:51:36.316Z,6.00
2018-03-19T08:52:39.758Z,6.50
2018-03-19T08:53:43.324Z,8.00
2018-03-19T08:54:46.595Z,8.00
2018-03-19T08:55:49.928Z,6.50
2018-03-19T08:56:53.617Z,5.50
2018-03-19T08:57:57.231Z,6.50
2018-03-19T08:59:00.781Z,8.00
2018-03-19T09:00:04.336Z,7.00
2018-03-19T09:01:07.726Z,6.00
2018-03-19T09:02:11.078Z,8.00
2018-03-19T09:03:14.506Z,8.00
2018-03-19T09:04:18.131Z,4.00
2018-03-19T09:05:21.448Z,8.00
2018-03-19T09:06:24.911Z,7.00
2018-03-19T09:07:28.333Z,8.00
2018-03-19T09:08:31.646Z,8.00
2018-03-19T09:09:35.066Z,8.50
2018-03-19T09:10:38.927Z,6.00
2018-03-19T09:11:42.422Z,8.00
2018-03-19T09:12:45.885Z,9.00
2018-03-19T09:13:49.154Z,7.50
2018-03-19T09:14:52.539Z,6.00
2018-03-19T09:15:55.866Z,7.00
2018-03-19T09:16:59.624Z,7.00
2018-03-19T09:18:03.160Z,5.50
2018-03-19T09:19:06.636Z,9.50
2018-03-19T09:20:10.210Z,8.00
2018-03-19T09:21:13.611Z,8.00
2018-03-19T09:22:16.967Z,8.00
2018-03-19T09:23:20.942Z,8.50
2018-03-19T09:24:24.335Z,6.50
2018-03-19T09:25:27.800Z,6.00
2018-03-19T09:26:31.316Z,8.50
2018-03-19T09:27:34.764Z,8.00
2018-03-19T09:28:38.229Z,8.50
2018-03-19T09:29:42.152Z,5.50
2018-03-19T09:30:45.579Z,8.50
2018-03-19T09:31:49.016Z,7.50
2018-03-19T09:32:52.344Z,6.00
2018-03-19T09:33:55.701Z,8.00
2018-03-19T09:34:59.071Z,8.00
2018-03-19T09:36:02.964Z,10.00
2018-03-19T09:37:06.428Z,8.50
2018-03-19T09:38:09.895Z,8.00
2018-03-19T09:39:13.165Z,10.00
2018-03-19T09:40:16.379Z,6.00
2018-03-19T09:41:19.756Z,7.50
2018-03-19T09:42:23.498Z,8.00
2018-03-19T09:43:27.353Z,8.00
2018-03-19T09:44:30.629Z,6.00
2018-03-19T09:45:34.009Z,8.50
2018-03-19T09:46:37.552Z,8.00
2018-03-19T09:47:40.823Z,8.00
2018-03-19T09:48:44.514Z,6.50
2018-03-19T09:49:48.016Z,9.50
2018-03-19T09:50:51.357Z,10.00
2018-03-19T09:51:54.669Z,9.50
2018-03-19T09:52:57.952Z,8.00
2018-03-19T09:54:01.315Z,6.00
2018-03-19T09:55:06.042Z,8.50
2018-03-19T09:56:09.348Z,6.00
2018-03-19T09:57:12.725Z,8.00
2018-03-19T09:58:16.013Z,10.00
2018-03-19T09:59:19.351Z,8.50
2018-03-19T10:00:22.824Z,8.00
2018-03-19T10:01:26.804Z,8.00
2018-03-19T10:02:30.156Z,6.50
2018-03-19T10:03:33.555Z,8.50
2018-03-19T10:04:37.031Z,7.50
2018-03-19T10:05:40.396Z,7.50
2018-03-19T10:06:43.742Z,5.50
2018-03-19T10:07:47.764Z,8.00
2018-03-19T10:08:51.155Z,7.00
2018-03-19T10:09:54.574Z,7.00
2018-03-19T10:10:57.817Z,6.50
2018-03-19T10:12:01.098Z,10.00
2018-03-19T10:13:04.452Z,8.00
2018-03-19T10:14:07.992Z,6.50
2018-03-19T10:15:11.271Z,6.50
2018-03-19T10:16:14.605Z,7.50
2018-03-19T10:17:18.330Z,6.00
2018-03-19T10:18:21.653Z,8.00
2018-03-19T10:19:26.172Z,7.00
2018-03-19T10:20:29.766Z,8.50
2018-03-19T10:21:33.387Z,7.00
2018-03-19T10:22:36.695Z,7.50
2018-03-19T10:23:39.896Z,8.00
2018-03-19T10:24:43.345Z,6.50
2018-03-19T10:25:46.633Z,6.00
2018-03-19T10:26:50.329Z,6.50
2018-03-19T10:27:53.718Z,8.00
2018-03-19T10:28:57.243Z,8.00
2018-03-19T10:30:00.614Z,8.00
2018-03-19T10:31:03.834Z,6.00
2018-03-19T10:32:07.401Z,8.50
2018-03-19T10:33:11.147Z,6.50
2018-03-19T10:34:14.522Z,10.50
2018-03-19T10:35:18.270Z,6.00
2018-03-19T10:36:21.656Z,5.00
2018-03-19T10:37:25.029Z,7.50
2018-03-19T10:38:28.398Z,7.50
2018-03-19T10:39:32.123Z,9.00
2018-03-19T10:40:35.585Z,6.50
2018-03-19T10:41:39.008Z,9.00
2018-03-19T10:42:42.386Z,10.00
2018-03-19T10:43:45.742Z,8.00
2018-03-19T10:44:51.109Z,10.00
2018-03-19T10:45:54.936Z,8.50
2018-03-19T10:46:58.260Z,8.00
2018-03-19T10:48:01.662Z,6.00
2018-03-19T10:49:05.006Z,7.50
2018-03-19T10:50:08.462Z,10.00
2018-03-19T10:51:11.796Z,8.00
2018-03-19T10:52:15.602Z,7.00
2018-03-19T10:53:19.399Z,9.50
2018-03-19T10:54:22.757Z,8.00
2018-03-19T10:55:26.096Z,7.50
2018-03-19T10:56:29.481Z,7.75
2018-03-19T10:57:32.760Z,8.25
2018-03-19T10:58:36.347Z,8.25
2018-03-19T10:59:39.646Z,6.25
2018-03-19T11:00:42.994Z,7.50
2018-03-19T11:01:47.451Z,7.00
2018-03-19T11:02:54.676Z,10.00
2018-03-19T11:04:02.648Z,9.00
2018-03-19T11:05:09.730Z,7.00
2018-03-19T11:06:16.904Z,9.00
2018-03-19T11:07:24.042Z,7.50
2018-03-19T11:08:31.125Z,9.50
2018-03-19T11:09:34.678Z,9.00
2018-03-19T11:10:38.056Z,7.00
2018-03-19T11:11:41.327Z,9.00
2018-03-19T11:12:44.624Z,8.00
2018-03-19T11:13:47.990Z,7.00
2018-03-19T11:14:52.030Z,9.00
2018-03-19T11:15:55.887Z,9.50
2018-03-19T11:16:59.174Z,8.50
2018-03-19T11:18:02.465Z,7.00
2018-03-19T11:19:05.763Z,8.00
2018-03-19T11:20:09.124Z,8.00
2018-03-19T11:21:12.404Z,9.50
2018-03-19T11:22:16.086Z,6.50
2018-03-19T11:23:19.474Z,7.00
2018-03-19T11:24:22.998Z,7.50
2018-03-19T11:25:26.367Z,7.00
2018-03-19T11:26:29.702Z,7.75
2018-03-19T11:27:33.675Z,5.75
2018-03-19T11:28:37.355Z,8.00
2018-03-19T11:29:40.687Z,9.50
2018-03-19T11:30:44.129Z,8.00
2018-03-19T11:31:47.497Z,9.00
2018-03-19T11:32:50.807Z,10.00
2018-03-19T11:33:54.144Z,8.00
2018-03-19T11:34:57.880Z,6.50
2018-03-19T11:36:01.270Z,7.75
2018-03-19T11:37:05.080Z,9.75
2018-03-19T11:38:08.454Z,9.00
2018-03-19T11:39:11.774Z,7.50
2018-03-19T11:40:15.030Z,6.00
2018-03-19T11:41:19.033Z,7.00
2018-03-19T11:42:22.669Z,7.50
2018-03-19T11:43:26.183Z,7.75
2018-03-19T11:44:29.398Z,7.75
2018-03-19T11:45:32.722Z,9.75
2018-03-19T11:46:36.087Z,7.75
2018-03-19T11:47:39.572Z,9.00
2018-03-19T11:48:42.769Z,7.50
2018-03-19T11:49:46.090Z,8.00
2018-03-19T11:50:49.361Z,9.00
2018-03-19T11:51:52.824Z,9.00
2018-03-19T11:52:56.937Z,7.00
2018-03-19T11:55:11.170Z,10.00
2018-03-19T11:57:26.760Z,10.00
2018-03-19T11:58:29.918Z,9.00
2018-03-19T11:59:34.336Z,8.00
2018-03-19T12:00:38.353Z,9.00
2018-03-19T12:01:41.537Z,8.50
2018-03-19T12:02:44.732Z,8.50
2018-03-19T12:03:47.960Z,9.00
2018-03-19T12:04:51.152Z,8.50
2018-03-19T12:06:06.642Z,9.50
2018-03-19T12:07:09.899Z,7.00
2018-03-19T12:08:14.069Z,8.00
2018-03-19T12:09:18.083Z,9.00
2018-03-19T12:10:22.152Z,7.00
2018-03-19T12:11:25.630Z,8.50
2018-03-19T12:12:30.079Z,7.00
2018-03-19T12:13:33.652Z,7.00
2018-03-19T12:14:38.553Z,5.00
2018-03-19T12:15:42.245Z,7.00
2018-03-19T12:16:45.537Z,7.50
2018-03-19T12:17:49.429Z,7.00
2018-03-19T12:18:54.593Z,7.00
2018-03-19T12:19:58.380Z,7.00
2018-03-19T12:21:01.638Z,7.00
2018-03-19T12:22:05.113Z,7.00
2018-03-19T12:23:09.021Z,7.50
2018-03-19T12:24:12.288Z,6.50
2018-03-19T12:25:15.887Z,9.00
2018-03-19T12:26:19.145Z,7.00
2018-03-19T12:27:22.412Z,7.00
2018-03-19T12:28:25.747Z,7.00
2018-03-19T12:29:29.054Z,7.00
2018-03-19T12:30:32.200Z,7.00
2018-03-19T12:31:35.671Z,7.00
2018-03-19T12:32:38.834Z,3.50
2018-03-19T12:33:42.030Z,4.00
2018-03-19T12:34:45.327Z,5.00
2018-03-19T12:35:48.543Z,5.00
2018-03-19T12:36:52.257Z,5.00
2018-03-19T12:37:55.885Z,6.50
2018-03-19T12:38:59.198Z,4.00
2018-03-19T12:40:03.070Z,4.00
2018-03-19T12:41:06.375Z,5.00
2018-03-19T12:42:09.646Z,7.00
2018-03-19T12:43:12.928Z,5.00
2018-03-19T12:44:16.235Z,5.00
2018-03-19T12:45:19.506Z,4.00
2018-03-19T12:46:23.204Z,3.50
2018-03-19T12:47:26.508Z,3.00
2018-03-19T12:48:30.926Z,3.00
2018-03-19T12:49:34.628Z,5.00
2018-03-19T12:50:40.066Z,5.00
2018-03-19T12:51:49.777Z,4.50
2018-03-19T12:52:53.312Z,3.50
2018-03-19T12:53:56.485Z,3.00
2018-03-19T12:54:59.847Z,3.50
2018-03-19T12:56:03.098Z,3.00
2018-03-19T12:57:06.620Z,3.00
2018-03-19T12:58:09.928Z,5.25
2018-03-19T12:59:13.342Z,2.00
2018-03-19T13:00:16.721Z,4.00
2018-03-19T13:01:19.970Z,4.50
2018-03-19T13:02:23.143Z,6.00
2018-03-19T13:03:26.834Z,4.00
2018-03-19T13:04:30.136Z,6.00
2018-03-19T13:05:37.763Z,6.00
2018-03-19T13:06:41.746Z,5.00
2018-03-19T13:07:44.965Z,6.00
2018-03-19T13:08:48.291Z,7.00
2018-03-19T13:09:51.814Z,6.00
2018-03-19T13:10:54.961Z,5.00
2018-03-19T13:11:58.258Z,4.00
2018-03-19T13:13:01.489Z,4.00
2018-03-19T13:14:04.723Z,4.00
2018-03-19T13:15:07.963Z,6.00
2018-03-19T13:16:12.266Z,3.75
2018-03-19T13:17:15.475Z,6.75
2018-03-19T13:18:18.619Z,6.00
2018-03-19T13:19:21.984Z,6.00
2018-03-19T13:20:25.156Z,5.00
2018-03-19T13:21:28.544Z,3.50
2018-03-19T13:22:31.594Z,3.50
2018-03-19T13:23:35.270Z,5.00
2018-03-19T13:24:38.698Z,5.00
2018-03-19T13:25:42.044Z,4.50
2018-03-19T13:26:45.314Z,3.00
2018-03-19T13:27:49.649Z,4.50
2018-03-19T13:28:52.935Z,5.00
2018-03-19T13:29:56.227Z,6.00
2018-03-19T13:30:59.544Z,5.00
2018-03-19T13:32:03.010Z,5.00
2018-03-19T13:33:06.263Z,6.50
2018-03-19T13:34:10.057Z,5.00
2018-03-19T13:35:13.224Z,4.00
2018-03-19T13:36:16.389Z,5.00
2018-03-19T13:37:19.560Z,4.50
2018-03-19T13:38:22.797Z,4.50
2018-03-19T13:39:26.051Z,5.00
2018-03-19T13:40:29.520Z,5.50
2018-03-19T13:41:33.051Z,7.00
2018-03-19T13:42:36.193Z,5.00
2018-03-19T13:43:39.349Z,5.00
2018-03-19T13:44:43.157Z,5.00
2018-03-19T13:45:46.517Z,5.00
2018-03-19T13:46:49.821Z,6.00
2018-03-19T13:47:53.038Z,7.00
2018-03-19T13:48:57.169Z,7.00
2018-03-19T13:50:00.334Z,7.00
2018-03-19T13:51:03.542Z,7.50
2018-03-19T13:52:08.516Z,8.50
2018-03-19T13:53:11.691Z,8.00
2018-03-19T13:54:15.214Z,9.00
2018-03-19T13:55:18.413Z,10.00
2018-03-19T13:56:21.576Z,9.00
2018-03-19T13:57:24.867Z,9.00
2018-03-19T13:58:29.545Z,8.00
2018-03-19T13:59:33.506Z,10.00
2018-03-19T14:00:36.861Z,8.50
2018-03-19T14:01:40.064Z,10.75
2018-03-19T14:02:43.616Z,8.50
2018-03-19T14:03:46.943Z,9.00
2018-03-19T14:04:50.579Z,7.00
2018-03-19T14:05:53.815Z,9.00
2018-03-19T14:06:57.199Z,7.00
2018-03-19T14:08:00.439Z,9.00
2018-03-19T14:09:03.952Z,4.50